Aviation Digital Data Service (ADDS)

Output produced by METARs form (1645 UTC 22 September 2019)
found at http://www.aviationweather.gov/metar/data/
 
Forecast for: GCXO (TENERIFE/LOS ROD, ES)
Text: TAF GCXO 221400Z 2215/2315 31010KT 9999 SCT013 TX26/2215Z TN17/2305Z
Forecast period: 1500 to 1600 UTC 22 September 2019
Forecast type: FROM: standard forecast or significant change
Winds: from the NW (310 degrees) at 12 MPH (10 knots; 5.1 m/s)
Visibility: 6 or more miles 10+ km)
Ceiling: at least 12,000 feet AGL
Clouds: scattered clouds at 1300 feet AGL
Weather: no significant weather forecast for this period
Text: BECMG 2216/2219 BKN012
Forecast period: 1600 UTC 22 September 2019 to 1500 UTC 23 September 2019
Forecast type: BECOMING: Conditions expected to become as follows by 1900 UTC 22 September 2019
Winds: from the NW (310 degrees) at 12 MPH (10 knots; 5.1 m/s)
Visibility: 6 or more miles 10+ km)
Ceiling: 1200 feet AGL
Clouds: broken clouds at 1200 feet AGL
Weather: no significant weather forecast for this period
Text: PROB40
Forecast period: 1700 UTC 22 September 2019 to 0900 UTC 23 September 2019
Forecast type: TEMPORARY: The following changes expected for less than half the time period
Visibility: 1.55 miles (2.49 km)
Ceiling: 500 feet AGL
Clouds: broken clouds at 500 feet AGL
Weather: RA DZ BCFG  (moderate rain, moderate drizzle, patches of fog)